sensor_id;sensor_type;location;lat;lon;timestamp;temperature;humidity
48946;DHT22;34999;50.940;3.998;2023-03-01T00:01:19;-1.60;99.90
48946;DHT22;34999;50.940;3.998;2023-03-01T00:03:48;-1.60;99.90
48946;DHT22;34999;50.940;3.998;2023-03-01T00:06:17;-1.70;99.90
48946;DHT22;34999;50.940;3.998;2023-03-01T00:08:45;-1.70;99.90
48946;DHT22;34999;50.940;3.998;2023-03-01T00:11:15;-1.70;99.90
48946;DHT22;34999;50.940;3.998;2023-03-01T00:13:46;-1.70;99.90
48946;DHT22;34999;50.940;3.998;2023-03-01T00:16:18;-1.70;99.90
48946;DHT22;34999;50.940;3.998;2023-03-01T00:18:46;-1.80;99.90
48946;DHT22;34999;50.940;3.998;2023-03-01T00:21:15;-1.80;99.90
48946;DHT22;34999;50.940;3.998;2023-03-01T00:23:43;-1.80;99.90
48946;DHT22;34999;50.940;3.998;2023-03-01T00:26:13;-1.80;99.90
48946;DHT22;34999;50.940;3.998;2023-03-01T00:28:42;-1.80;99.90
48946;DHT22;34999;50.940;3.998;2023-03-01T00:31:12;-1.80;99.90
48946;DHT22;34999;50.940;3.998;2023-03-01T00:33:42;-1.90;99.90
48946;DHT22;34999;50.940;3.998;2023-03-01T00:36:11;-1.80;99.90
48946;DHT22;34999;50.940;3.998;2023-03-01T00:38:42;-1.90;99.90
48946;DHT22;34999;50.940;3.998;2023-03-01T00:41:12;-1.90;99.90
48946;DHT22;34999;50.940;3.998;2023-03-01T00:43:41;-1.90;99.90
48946;DHT22;34999;50.940;3.998;2023-03-01T00:46:11;-1.90;99.90
48946;DHT22;34999;50.940;3.998;2023-03-01T00:48:41;-2.00;99.90
48946;DHT22;34999;50.940;3.998;2023-03-01T00:51:11;-2.00;99.90
48946;DHT22;34999;50.940;3.998;2023-03-01T00:53:41;-2.00;99.90
48946;DHT22;34999;50.940;3.998;2023-03-01T00:56:11;-2.00;99.90
48946;DHT22;34999;50.940;3.998;2023-03-01T00:58:40;-2.00;99.90
48946;DHT22;34999;50.940;3.998;2023-03-01T01:01:09;-2.00;99.90
48946;DHT22;34999;50.940;3.998;2023-03-01T01:03:47;-2.10;99.90
48946;DHT22;34999;50.940;3.998;2023-03-01T01:06:17;-2.10;99.90
48946;DHT22;34999;50.940;3.998;2023-03-01T01:08:47;-2.10;99.90
48946;DHT22;34999;50.940;3.998;2023-03-01T01:11:15;-2.10;99.90
48946;DHT22;34999;50.940;3.998;2023-03-01T01:13:45;-2.10;99.90
48946;DHT22;34999;50.940;3.998;2023-03-01T01:16:14;-2.20;99.90
48946;DHT22;34999;50.940;3.998;2023-03-01T01:18:42;-2.20;99.90
48946;DHT22;34999;50.940;3.998;2023-03-01T01:21:15;-2.20;99.90
48946;DHT22;34999;50.940;3.998;2023-03-01T01:23:45;-2.20;99.90
48946;DHT22;34999;50.940;3.998;2023-03-01T01:26:15;-2.20;99.90
48946;DHT22;34999;50.940;3.998;2023-03-01T01:28:43;-2.20;99.90
48946;DHT22;34999;50.940;3.998;2023-03-01T01:31:12;-2.20;99.90
48946;DHT22;34999;50.940;3.998;2023-03-01T01:33:40;-2.30;99.90
48946;DHT22;34999;50.940;3.998;2023-03-01T01:36:09;-2.30;99.90
48946;DHT22;34999;50.940;3.998;2023-03-01T01:38:39;-2.30;99.90
48946;DHT22;34999;50.940;3.998;2023-03-01T01:41:10;-2.30;99.90
48946;DHT22;34999;50.940;3.998;2023-03-01T01:43:41;-2.30;99.90
48946;DHT22;34999;50.940;3.998;2023-03-01T01:46:17;-2.30;99.90
48946;DHT22;34999;50.940;3.998;2023-03-01T01:48:52;-2.40;99.90
48946;DHT22;34999;50.940;3.998;2023-03-01T01:51:25;-2.40;99.90
48946;DHT22;34999;50.940;3.998;2023-03-01T01:53:57;-2.40;99.90
48946;DHT22;34999;50.940;3.998;2023-03-01T01:56:29;-2.40;99.90
48946;DHT22;34999;50.940;3.998;2023-03-01T01:58:58;-2.40;99.90
48946;DHT22;34999;50.940;3.998;2023-03-01T02:01:27;-2.40;99.90
48946;DHT22;34999;50.940;3.998;2023-03-01T02:03:55;-2.40;99.90
48946;DHT22;34999;50.940;3.998;2023-03-01T02:06:27;-2.40;99.90
48946;DHT22;34999;50.940;3.998;2023-03-01T02:09:02;-2.40;99.90
48946;DHT22;34999;50.940;3.998;2023-03-01T02:11:32;-2.40;99.90
48946;DHT22;34999;50.940;3.998;2023-03-01T02:14:01;-2.40;99.90
48946;DHT22;34999;50.940;3.998;2023-03-01T02:16:29;-2.40;99.90
48946;DHT22;34999;50.940;3.998;2023-03-01T02:18:59;-2.50;99.90
48946;DHT22;34999;50.940;3.998;2023-03-01T02:21:40;-2.50;99.90
48946;DHT22;34999;50.940;3.998;2023-03-01T02:24:21;-2.50;99.90
48946;DHT22;34999;50.940;3.998;2023-03-01T02:26:55;-2.50;99.90
48946;DHT22;34999;50.940;3.998;2023-03-01T02:29:27;-2.50;99.90
48946;DHT22;34999;50.940;3.998;2023-03-01T02:31:58;-2.50;99.90
48946;DHT22;34999;50.940;3.998;2023-03-01T02:34:27;-2.50;99.90
48946;DHT22;34999;50.940;3.998;2023-03-01T02:36:59;-2.50;99.90
48946;DHT22;34999;50.940;3.998;2023-03-01T02:39:33;-2.60;99.90
48946;DHT22;34999;50.940;3.998;2023-03-01T02:42:03;-2.60;99.90
48946;DHT22;34999;50.940;3.998;2023-03-01T02:44:33;-2.60;99.90
48946;DHT22;34999;50.940;3.998;2023-03-01T02:47:03;-2.60;99.90
48946;DHT22;34999;50.940;3.998;2023-03-01T02:49:34;-2.60;99.90
48946;DHT22;34999;50.940;3.998;2023-03-01T02:52:17;-2.60;99.90
48946;DHT22;34999;50.940;3.998;2023-03-01T02:54:52;-2.70;99.90
48946;DHT22;34999;50.940;3.998;2023-03-01T02:57:23;-2.70;99.90
48946;DHT22;34999;50.940;3.998;2023-03-01T02:59:57;-2.70;99.90
48946;DHT22;34999;50.940;3.998;2023-03-01T03:02:29;-2.70;99.90
48946;DHT22;34999;50.940;3.998;2023-03-01T03:05:07;-2.70;99.90
48946;DHT22;34999;50.940;3.998;2023-03-01T03:07:37;-2.80;99.90
48946;DHT22;34999;50.940;3.998;2023-03-01T03:10:09;-2.80;99.90
48946;DHT22;34999;50.940;3.998;2023-03-01T03:12:38;-2.80;99.90
48946;DHT22;34999;50.940;3.998;2023-03-01T03:15:09;-2.80;99.90
48946;DHT22;34999;50.940;3.998;2023-03-01T03:17:41;-2.90;99.90
48946;DHT22;34999;50.940;3.998;2023-03-01T03:20:14;-2.90;99.90
48946;DHT22;34999;50.940;3.998;2023-03-01T03:22:46;-2.90;99.90
48946;DHT22;34999;50.940;3.998;2023-03-01T03:25:15;-2.90;99.90
48946;DHT22;34999;50.940;3.998;2023-03-01T03:27:46;-2.90;99.90
48946;DHT22;34999;50.940;3.998;2023-03-01T03:30:18;-2.90;99.90
48946;DHT22;34999;50.940;3.998;2023-03-01T03:32:48;-2.90;99.90
48946;DHT22;34999;50.940;3.998;2023-03-01T03:35:21;-2.90;99.90
48946;DHT22;34999;50.940;3.998;2023-03-01T03:37:51;-2.90;99.90
48946;DHT22;34999;50.940;3.998;2023-03-01T03:40:35;-3.00;99.90
48946;DHT22;34999;50.940;3.998;2023-03-01T03:43:05;-3.00;99.90
48946;DHT22;34999;50.940;3.998;2023-03-01T03:45:35;-3.00;99.90
48946;DHT22;34999;50.940;3.998;2023-03-01T03:48:07;-3.00;99.90
48946;DHT22;34999;50.940;3.998;2023-03-01T03:50:37;-3.00;99.90
48946;DHT22;34999;50.940;3.998;2023-03-01T03:53:07;-3.00;99.90
48946;DHT22;34999;50.940;3.998;2023-03-01T03:55:36;-3.00;99.90
48946;DHT22;34999;50.940;3.998;2023-03-01T03:58:07;-3.10;99.90
48946;DHT22;34999;50.940;3.998;2023-03-01T04:00:42;-3.10;99.90
48946;DHT22;34999;50.940;3.998;2023-03-01T04:03:13;-3.10;99.90
48946;DHT22;34999;50.940;3.998;2023-03-01T04:05:41;-3.10;99.90
48946;DHT22;34999;50.940;3.998;2023-03-01T04:08:13;-3.10;99.90
48946;DHT22;34999;50.940;3.998;2023-03-01T04:10:43;-3.10;99.90
48946;DHT22;34999;50.940;3.998;2023-03-01T04:13:16;-3.20;99.90
48946;DHT22;34999;50.940;3.998;2023-03-01T04:15:48;-3.20;99.90
48946;DHT22;34999;50.940;3.998;2023-03-01T04:18:19;-3.20;99.90
48946;DHT22;34999;50.940;3.998;2023-03-01T04:20:48;-3.20;99.90
48946;DHT22;34999;50.940;3.998;2023-03-01T04:23:20;-3.20;99.90
48946;DHT22;34999;50.940;3.998;2023-03-01T04:25:50;-3.20;99.90
48946;DHT22;34999;50.940;3.998;2023-03-01T04:28:23;-3.20;99.90
48946;DHT22;34999;50.940;3.998;2023-03-01T04:30:54;-3.20;99.90
48946;DHT22;34999;50.940;3.998;2023-03-01T04:33:24;-3.30;99.90
48946;DHT22;34999;50.940;3.998;2023-03-01T04:35:53;-3.30;99.90
48946;DHT22;34999;50.940;3.998;2023-03-01T04:38:21;-3.30;99.90
48946;DHT22;34999;50.940;3.998;2023-03-01T04:40:49;-3.40;99.90
48946;DHT22;34999;50.940;3.998;2023-03-01T04:43:17;-3.40;99.90
48946;DHT22;34999;50.940;3.998;2023-03-01T04:45:45;-3.40;99.90
48946;DHT22;34999;50.940;3.998;2023-03-01T04:48:15;-3.40;99.90
48946;DHT22;34999;50.940;3.998;2023-03-01T04:50:43;-3.40;99.90
48946;DHT22;34999;50.940;3.998;2023-03-01T04:53:11;-3.50;99.90
48946;DHT22;34999;50.940;3.998;2023-03-01T04:55:40;-3.50;99.90
48946;DHT22;34999;50.940;3.998;2023-03-01T04:58:08;-3.50;99.90
48946;DHT22;34999;50.940;3.998;2023-03-01T05:00:36;-3.60;99.90
48946;DHT22;34999;50.940;3.998;2023-03-01T05:03:05;-3.60;99.90
48946;DHT22;34999;50.940;3.998;2023-03-01T05:05:36;-3.60;99.90
48946;DHT22;34999;50.940;3.998;2023-03-01T05:08:07;-3.60;99.90
48946;DHT22;34999;50.940;3.998;2023-03-01T05:10:36;-3.60;99.90
48946;DHT22;34999;50.940;3.998;2023-03-01T05:13:05;-3.60;99.90
48946;DHT22;34999;50.940;3.998;2023-03-01T05:15:34;-3.60;99.90
48946;DHT22;34999;50.940;3.998;2023-03-01T05:18:03;-3.60;99.90
48946;DHT22;34999;50.940;3.998;2023-03-01T05:20:39;-3.60;99.90
48946;DHT22;34999;50.940;3.998;2023-03-01T05:23:08;-3.60;99.90
48946;DHT22;34999;50.940;3.998;2023-03-01T05:25:36;-3.70;99.90
48946;DHT22;34999;50.940;3.998;2023-03-01T05:28:09;-3.70;99.90
48946;DHT22;34999;50.940;3.998;2023-03-01T05:30:38;-3.70;99.90
48946;DHT22;34999;50.940;3.998;2023-03-01T05:33:08;-3.70;99.90
48946;DHT22;34999;50.940;3.998;2023-03-01T05:35:43;-3.70;99.90
48946;DHT22;34999;50.940;3.998;2023-03-01T05:38:12;-3.70;99.90
48946;DHT22;34999;50.940;3.998;2023-03-01T05:40:42;-3.70;99.90
48946;DHT22;34999;50.940;3.998;2023-03-01T05:43:12;-3.70;99.90
48946;DHT22;34999;50.940;3.998;2023-03-01T05:45:41;-3.70;99.90
48946;DHT22;34999;50.940;3.998;2023-03-01T05:48:10;-3.70;99.90
48946;DHT22;34999;50.940;3.998;2023-03-01T05:50:42;-3.70;99.90
48946;DHT22;34999;50.940;3.998;2023-03-01T05:53:13;-3.70;99.90
48946;DHT22;34999;50.940;3.998;2023-03-01T05:55:42;-3.70;99.90
48946;DHT22;34999;50.940;3.998;2023-03-01T05:58:14;-3.70;99.90
48946;DHT22;34999;50.940;3.998;2023-03-01T06:00:44;-3.70;99.90
48946;DHT22;34999;50.940;3.998;2023-03-01T06:03:14;-3.70;99.90
48946;DHT22;34999;50.940;3.998;2023-03-01T06:05:44;-3.70;99.90
48946;DHT22;34999;50.940;3.998;2023-03-01T06:08:13;-3.70;99.90
48946;DHT22;34999;50.940;3.998;2023-03-01T06:10:41;-3.70;99.90
48946;DHT22;34999;50.940;3.998;2023-03-01T06:13:09;-3.70;99.90
48946;DHT22;34999;50.940;3.998;2023-03-01T06:15:38;-3.70;99.90
48946;DHT22;34999;50.940;3.998;2023-03-01T06:18:06;-3.70;99.90
48946;DHT22;34999;50.940;3.998;2023-03-01T06:20:34;-3.80;99.90
48946;DHT22;34999;50.940;3.998;2023-03-01T06:23:04;-3.80;99.90
48946;DHT22;34999;50.940;3.998;2023-03-01T06:25:33;-3.80;99.90
48946;DHT22;34999;50.940;3.998;2023-03-01T06:28:01;-3.80;99.90
48946;DHT22;34999;50.940;3.998;2023-03-01T06:30:31;-3.90;99.90
48946;DHT22;34999;50.940;3.998;2023-03-01T06:32:59;-3.90;99.90
48946;DHT22;34999;50.940;3.998;2023-03-01T06:35:29;-3.90;99.90
48946;DHT22;34999;50.940;3.998;2023-03-01T06:37:59;-3.90;99.90
48946;DHT22;34999;50.940;3.998;2023-03-01T06:40:29;-3.80;99.90
48946;DHT22;34999;50.940;3.998;2023-03-01T06:42:58;-3.80;99.90
48946;DHT22;34999;50.940;3.998;2023-03-01T06:45:27;-3.70;99.90
48946;DHT22;34999;50.940;3.998;2023-03-01T06:48:02;-3.70;99.90
48946;DHT22;34999;50.940;3.998;2023-03-01T06:50:31;-3.70;99.90
48946;DHT22;34999;50.940;3.998;2023-03-01T06:53:00;-3.70;99.90
48946;DHT22;34999;50.940;3.998;2023-03-01T06:55:30;-3.60;99.90
48946;DHT22;34999;50.940;3.998;2023-03-01T06:57:59;-3.70;99.90
48946;DHT22;34999;50.940;3.998;2023-03-01T07:00:28;-3.60;99.90
48946;DHT22;34999;50.940;3.998;2023-03-01T07:02:59;-3.60;99.90
48946;DHT22;34999;50.940;3.998;2023-03-01T07:05:29;-3.60;99.90
48946;DHT22;34999;50.940;3.998;2023-03-01T07:07:57;-3.50;99.90
48946;DHT22;34999;50.940;3.998;2023-03-01T07:10:26;-3.50;99.90
48946;DHT22;34999;50.940;3.998;2023-03-01T07:12:56;-3.50;99.90
48946;DHT22;34999;50.940;3.998;2023-03-01T07:15:25;-3.40;99.90
48946;DHT22;34999;50.940;3.998;2023-03-01T07:17:54;-3.40;99.90
48946;DHT22;34999;50.940;3.998;2023-03-01T07:20:22;-3.40;99.90
48946;DHT22;34999;50.940;3.998;2023-03-01T07:22:52;-3.30;99.90
48946;DHT22;34999;50.940;3.998;2023-03-01T07:25:20;-3.20;99.90
48946;DHT22;34999;50.940;3.998;2023-03-01T07:27:52;-3.10;99.90
48946;DHT22;34999;50.940;3.998;2023-03-01T07:30:22;-3.00;99.90
48946;DHT22;34999;50.940;3.998;2023-03-01T07:32:53;-2.90;99.90
48946;DHT22;34999;50.940;3.998;2023-03-01T07:35:22;-2.70;99.90
48946;DHT22;34999;50.940;3.998;2023-03-01T07:37:52;-2.40;99.90
48946;DHT22;34999;50.940;3.998;2023-03-01T07:40:20;-2.00;99.90
48946;DHT22;34999;50.940;3.998;2023-03-01T07:42:48;-1.60;99.90
48946;DHT22;34999;50.940;3.998;2023-03-01T07:45:17;-1.20;99.90
48946;DHT22;34999;50.940;3.998;2023-03-01T07:47:46;-0.80;99.90
48946;DHT22;34999;50.940;3.998;2023-03-01T07:50:15;-0.40;99.90
48946;DHT22;34999;50.940;3.998;2023-03-01T07:52:45;0.00;99.90
48946;DHT22;34999;50.940;3.998;2023-03-01T07:55:14;0.50;99.90
48946;DHT22;34999;50.940;3.998;2023-03-01T07:57:43;0.80;99.90
48946;DHT22;34999;50.940;3.998;2023-03-01T08:00:12;1.20;99.90
48946;DHT22;34999;50.940;3.998;2023-03-01T08:02:40;1.60;99.90
48946;DHT22;34999;50.940;3.998;2023-03-01T08:05:10;1.80;99.90
48946;DHT22;34999;50.940;3.998;2023-03-01T08:07:38;2.20;99.90
48946;DHT22;34999;50.940;3.998;2023-03-01T08:10:07;2.60;99.90
48946;DHT22;34999;50.940;3.998;2023-03-01T08:12:36;2.90;99.90
48946;DHT22;34999;50.940;3.998;2023-03-01T08:15:05;3.20;99.90
48946;DHT22;34999;50.940;3.998;2023-03-01T08:17:34;3.50;99.90
48946;DHT22;34999;50.940;3.998;2023-03-01T08:20:02;3.60;99.90
48946;DHT22;34999;50.940;3.998;2023-03-01T08:22:34;3.80;99.90
48946;DHT22;34999;50.940;3.998;2023-03-01T08:25:02;4.00;99.90
48946;DHT22;34999;50.940;3.998;2023-03-01T08:27:31;3.80;99.90
48946;DHT22;34999;50.940;3.998;2023-03-01T08:29:59;3.80;99.90
48946;DHT22;34999;50.940;3.998;2023-03-01T08:32:27;3.70;99.90
48946;DHT22;34999;50.940;3.998;2023-03-01T08:34:59;4.00;99.90
48946;DHT22;34999;50.940;3.998;2023-03-01T08:37:27;4.30;99.90
48946;DHT22;34999;50.940;3.998;2023-03-01T08:39:59;4.30;99.90
48946;DHT22;34999;50.940;3.998;2023-03-01T08:42:27;4.30;99.90
48946;DHT22;34999;50.940;3.998;2023-03-01T08:44:56;4.30;99.90
48946;DHT22;34999;50.940;3.998;2023-03-01T08:47:27;4.60;99.90
48946;DHT22;34999;50.940;3.998;2023-03-01T08:49:55;4.80;99.90
48946;DHT22;34999;50.940;3.998;2023-03-01T08:52:23;5.10;99.90
48946;DHT22;34999;50.940;3.998;2023-03-01T08:54:54;5.00;99.90
48946;DHT22;34999;50.940;3.998;2023-03-01T08:57:23;5.00;99.90
48946;DHT22;34999;50.940;3.998;2023-03-01T08:59:52;5.30;99.90
48946;DHT22;34999;50.940;3.998;2023-03-01T09:02:23;5.20;99.90
48946;DHT22;34999;50.940;3.998;2023-03-01T09:04:51;5.10;99.90
48946;DHT22;34999;50.940;3.998;2023-03-01T09:07:19;5.30;99.90
48946;DHT22;34999;50.940;3.998;2023-03-01T09:09:48;5.50;99.90
48946;DHT22;34999;50.940;3.998;2023-03-01T09:12:16;5.70;99.90
48946;DHT22;34999;50.940;3.998;2023-03-01T09:14:45;5.70;99.90
48946;DHT22;34999;50.940;3.998;2023-03-01T09:17:14;5.70;99.90
48946;DHT22;34999;50.940;3.998;2023-03-01T09:19:42;6.00;99.90
48946;DHT22;34999;50.940;3.998;2023-03-01T09:22:10;6.20;99.90
48946;DHT22;34999;50.940;3.998;2023-03-01T09:24:38;6.10;99.90
48946;DHT22;34999;50.940;3.998;2023-03-01T09:27:07;6.30;99.90
48946;DHT22;34999;50.940;3.998;2023-03-01T09:29:35;6.30;99.90
48946;DHT22;34999;50.940;3.998;2023-03-01T09:32:05;6.30;99.90
48946;DHT22;34999;50.940;3.998;2023-03-01T09:34:35;6.60;99.90
48946;DHT22;34999;50.940;3.998;2023-03-01T09:37:24;6.80;99.90
48946;DHT22;34999;50.940;3.998;2023-03-01T09:39:52;7.10;99.90
48946;DHT22;34999;50.940;3.998;2023-03-01T09:42:20;7.00;99.90
48946;DHT22;34999;50.940;3.998;2023-03-01T09:44:51;6.90;99.90
48946;DHT22;34999;50.940;3.998;2023-03-01T09:47:23;6.90;99.90
48946;DHT22;34999;50.940;3.998;2023-03-01T09:50:00;7.00;99.90
48946;DHT22;34999;50.940;3.998;2023-03-01T09:52:34;7.30;99.90
48946;DHT22;34999;50.940;3.998;2023-03-01T09:55:09;7.50;99.90
48946;DHT22;34999;50.940;3.998;2023-03-01T09:57:43;7.70;99.90
48946;DHT22;34999;50.940;3.998;2023-03-01T10:00:25;7.80;99.90
48946;DHT22;34999;50.940;3.998;2023-03-01T10:03:03;7.90;99.90
48946;DHT22;34999;50.940;3.998;2023-03-01T10:05:41;8.00;99.90
48946;DHT22;34999;50.940;3.998;2023-03-01T10:08:26;8.00;99.90
48946;DHT22;34999;50.940;3.998;2023-03-01T10:10:58;7.70;99.90
48946;DHT22;34999;50.940;3.998;2023-03-01T10:13:33;7.80;99.90
48946;DHT22;34999;50.940;3.998;2023-03-01T10:16:09;8.20;99.90
48946;DHT22;34999;50.940;3.998;2023-03-01T10:18:40;8.50;99.90
48946;DHT22;34999;50.940;3.998;2023-03-01T10:21:14;9.10;99.90
48946;DHT22;34999;50.940;3.998;2023-03-01T10:23:43;9.20;99.90
48946;DHT22;34999;50.940;3.998;2023-03-01T10:26:37;9.10;99.90
48946;DHT22;34999;50.940;3.998;2023-03-01T10:29:09;8.90;99.90
48946;DHT22;34999;50.940;3.998;2023-03-01T10:31:40;9.00;99.90
48946;DHT22;34999;50.940;3.998;2023-03-01T10:34:13;9.20;99.90
48946;DHT22;34999;50.940;3.998;2023-03-01T10:36:43;8.70;99.90
48946;DHT22;34999;50.940;3.998;2023-03-01T10:39:14;8.80;99.90
48946;DHT22;34999;50.940;3.998;2023-03-01T10:41:55;8.90;99.90
48946;DHT22;34999;50.940;3.998;2023-03-01T10:44:37;9.00;99.90
48946;DHT22;34999;50.940;3.998;2023-03-01T10:47:17;9.30;99.90
48946;DHT22;34999;50.940;3.998;2023-03-01T10:49:54;9.70;99.90
48946;DHT22;34999;50.940;3.998;2023-03-01T10:52:25;9.90;99.90
48946;DHT22;34999;50.940;3.998;2023-03-01T10:54:56;10.20;99.90
48946;DHT22;34999;50.940;3.998;2023-03-01T10:57:39;10.10;99.90
48946;DHT22;34999;50.940;3.998;2023-03-01T11:00:18;9.80;99.90
48946;DHT22;34999;50.940;3.998;2023-03-01T11:02:49;9.60;99.90
48946;DHT22;34999;50.940;3.998;2023-03-01T11:05:21;9.10;99.90
48946;DHT22;34999;50.940;3.998;2023-03-01T11:07:53;8.80;99.90
48946;DHT22;34999;50.940;3.998;2023-03-01T11:10:23;9.20;99.90
48946;DHT22;34999;50.940;3.998;2023-03-01T11:12:56;9.20;99.90
48946;DHT22;34999;50.940;3.998;2023-03-01T11:15:33;9.20;99.90
48946;DHT22;34999;50.940;3.998;2023-03-01T11:18:02;9.30;99.90
48946;DHT22;34999;50.940;3.998;2023-03-01T11:20:41;9.60;99.90
48946;DHT22;34999;50.940;3.998;2023-03-01T11:23:12;10.10;99.90
48946;DHT22;34999;50.940;3.998;2023-03-01T11:25:43;10.50;99.90
48946;DHT22;34999;50.940;3.998;2023-03-01T11:28:16;10.50;99.90
48946;DHT22;34999;50.940;3.998;2023-03-01T11:30:50;10.70;99.90
48946;DHT22;34999;50.940;3.998;2023-03-01T11:33:39;10.80;99.90
48946;DHT22;34999;50.940;3.998;2023-03-01T11:36:16;10.10;99.90
48946;DHT22;34999;50.940;3.998;2023-03-01T11:38:45;9.30;99.90
48946;DHT22;34999;50.940;3.998;2023-03-01T11:41:16;9.80;99.90
48946;DHT22;34999;50.940;3.998;2023-03-01T11:43:50;10.40;99.90
48946;DHT22;34999;50.940;3.998;2023-03-01T11:46:43;10.60;99.90
48946;DHT22;34999;50.940;3.998;2023-03-01T11:49:32;10.90;99.90
48946;DHT22;34999;50.940;3.998;2023-03-01T11:52:12;11.20;99.90
48946;DHT22;34999;50.940;3.998;2023-03-01T11:54:53;10.10;99.90
48946;DHT22;34999;50.940;3.998;2023-03-01T11:57:43;10.30;99.90
48946;DHT22;34999;50.940;3.998;2023-03-01T12:00:36;10.70;99.90
48946;DHT22;34999;50.940;3.998;2023-03-01T12:03:25;10.60;99.90
48946;DHT22;34999;50.940;3.998;2023-03-01T12:06:21;11.00;99.90
48946;DHT22;34999;50.940;3.998;2023-03-01T12:09:02;10.20;99.90
48946;DHT22;34999;50.940;3.998;2023-03-01T12:11:45;9.90;99.90
48946;DHT22;34999;50.940;3.998;2023-03-01T12:14:35;10.40;99.90
48946;DHT22;34999;50.940;3.998;2023-03-01T12:17:18;10.40;99.90
48946;DHT22;34999;50.940;3.998;2023-03-01T12:20:01;10.20;99.90
48946;DHT22;34999;50.940;3.998;2023-03-01T12:22:34;10.20;99.90
48946;DHT22;34999;50.940;3.998;2023-03-01T12:25:18;10.00;99.90
48946;DHT22;34999;50.940;3.998;2023-03-01T12:28:02;10.30;99.90
48946;DHT22;34999;50.940;3.998;2023-03-01T12:30:41;10.60;99.90
48946;DHT22;34999;50.940;3.998;2023-03-01T12:33:17;10.40;99.90
48946;DHT22;34999;50.940;3.998;2023-03-01T12:36:05;10.50;99.90
48946;DHT22;34999;50.940;3.998;2023-03-01T12:38:42;10.20;99.90
48946;DHT22;34999;50.940;3.998;2023-03-01T12:41:45;10.10;99.90
48946;DHT22;34999;50.940;3.998;2023-03-01T12:44:31;10.20;99.90
48946;DHT22;34999;50.940;3.998;2023-03-01T12:47:12;9.90;99.90
48946;DHT22;34999;50.940;3.998;2023-03-01T12:49:45;10.10;99.90
48946;DHT22;34999;50.940;3.998;2023-03-01T12:52:18;10.60;99.90
48946;DHT22;34999;50.940;3.998;2023-03-01T12:54:49;10.50;99.90
48946;DHT22;34999;50.940;3.998;2023-03-01T12:57:26;10.60;99.90
48946;DHT22;34999;50.940;3.998;2023-03-01T13:00:17;10.70;99.90
48946;DHT22;34999;50.940;3.998;2023-03-01T13:02:53;10.60;99.90
48946;DHT22;34999;50.940;3.998;2023-03-01T13:05:29;10.90;99.90
48946;DHT22;34999;50.940;3.998;2023-03-01T13:08:08;10.80;99.90
48946;DHT22;34999;50.940;3.998;2023-03-01T13:10:43;10.60;99.90
48946;DHT22;34999;50.940;3.998;2023-03-01T13:13:22;10.50;99.90
48946;DHT22;34999;50.940;3.998;2023-03-01T13:15:51;10.40;99.90
48946;DHT22;34999;50.940;3.998;2023-03-01T13:18:32;10.40;99.90
48946;DHT22;34999;50.940;3.998;2023-03-01T13:21:02;10.30;99.90
48946;DHT22;34999;50.940;3.998;2023-03-01T13:23:37;10.00;99.90
48946;DHT22;34999;50.940;3.998;2023-03-01T13:26:09;9.80;99.90
48946;DHT22;34999;50.940;3.998;2023-03-01T13:28:55;9.60;99.90
48946;DHT22;34999;50.940;3.998;2023-03-01T13:34:46;9.30;99.90
48946;DHT22;34999;50.940;3.998;2023-03-01T13:37:21;9.30;99.90
48946;DHT22;34999;50.940;3.998;2023-03-01T13:39:49;9.30;99.90
48946;DHT22;34999;50.940;3.998;2023-03-01T13:42:42;9.30;99.90
48946;DHT22;34999;50.940;3.998;2023-03-01T13:45:35;9.40;99.90
48946;DHT22;34999;50.940;3.998;2023-03-01T13:48:10;9.20;99.90
48946;DHT22;34999;50.940;3.998;2023-03-01T13:50:45;9.30;99.90
48946;DHT22;34999;50.940;3.998;2023-03-01T13:53:17;9.50;99.90
48946;DHT22;34999;50.940;3.998;2023-03-01T13:55:48;8.90;99.90
48946;DHT22;34999;50.940;3.998;2023-03-01T13:58:23;8.90;99.90
48946;DHT22;34999;50.940;3.998;2023-03-01T14:01:01;9.30;99.90
48946;DHT22;34999;50.940;3.998;2023-03-01T14:03:31;9.60;99.90
48946;DHT22;34999;50.940;3.998;2023-03-01T14:06:03;9.40;99.90
48946;DHT22;34999;50.940;3.998;2023-03-01T14:08:43;9.40;99.90
48946;DHT22;34999;50.940;3.998;2023-03-01T14:11:42;9.30;99.90
48946;DHT22;34999;50.940;3.998;2023-03-01T14:14:42;9.20;99.90
48946;DHT22;34999;50.940;3.998;2023-03-01T14:17:44;9.00;99.90
48946;DHT22;34999;50.940;3.998;2023-03-01T14:20:18;9.40;99.90
48946;DHT22;34999;50.940;3.998;2023-03-01T14:22:48;9.10;99.90
48946;DHT22;34999;50.940;3.998;2023-03-01T14:25:21;8.90;99.90
48946;DHT22;34999;50.940;3.998;2023-03-01T14:27:57;9.10;99.90
48946;DHT22;34999;50.940;3.998;2023-03-01T14:30:27;8.90;99.90
48946;DHT22;34999;50.940;3.998;2023-03-01T14:33:01;8.70;99.90
48946;DHT22;34999;50.940;3.998;2023-03-01T14:35:31;8.50;99.90
48946;DHT22;34999;50.940;3.998;2023-03-01T14:38:00;8.80;99.90
48946;DHT22;34999;50.940;3.998;2023-03-01T14:40:31;9.30;99.90
48946;DHT22;34999;50.940;3.998;2023-03-01T14:43:03;9.40;99.90
48946;DHT22;34999;50.940;3.998;2023-03-01T14:45:35;9.30;99.90
48946;DHT22;34999;50.940;3.998;2023-03-01T14:48:07;9.30;99.90
48946;DHT22;34999;50.940;3.998;2023-03-01T14:50:40;8.90;99.90
48946;DHT22;34999;50.940;3.998;2023-03-01T14:53:16;8.90;99.90
48946;DHT22;34999;50.940;3.998;2023-03-01T14:55:47;8.90;99.90
48946;DHT22;34999;50.940;3.998;2023-03-01T14:58:19;9.20;99.90
48946;DHT22;34999;50.940;3.998;2023-03-01T15:00:51;9.10;99.90
48946;DHT22;34999;50.940;3.998;2023-03-01T15:03:27;9.30;99.90
48946;DHT22;34999;50.940;3.998;2023-03-01T15:05:59;9.40;99.90
48946;DHT22;34999;50.940;3.998;2023-03-01T15:08:28;9.50;99.90
48946;DHT22;34999;50.940;3.998;2023-03-01T15:11:02;9.30;99.90
48946;DHT22;34999;50.940;3.998;2023-03-01T15:13:35;9.20;99.90
48946;DHT22;34999;50.940;3.998;2023-03-01T15:16:09;9.20;99.90
48946;DHT22;34999;50.940;3.998;2023-03-01T15:18:44;9.40;99.90
48946;DHT22;34999;50.940;3.998;2023-03-01T15:21:18;9.40;99.90
48946;DHT22;34999;50.940;3.998;2023-03-01T15:23:50;9.50;99.90
48946;DHT22;34999;50.940;3.998;2023-03-01T15:26:26;9.10;99.90
48946;DHT22;34999;50.940;3.998;2023-03-01T15:28:59;9.20;99.90
48946;DHT22;34999;50.940;3.998;2023-03-01T15:31:28;9.00;99.90
48946;DHT22;34999;50.940;3.998;2023-03-01T15:34:22;9.00;99.90
48946;DHT22;34999;50.940;3.998;2023-03-01T15:36:52;8.90;99.90
48946;DHT22;34999;50.940;3.998;2023-03-01T15:39:34;8.80;99.90
48946;DHT22;34999;50.940;3.998;2023-03-01T15:42:07;8.60;99.90
48946;DHT22;34999;50.940;3.998;2023-03-01T15:44:39;8.40;99.90
48946;DHT22;34999;50.940;3.998;2023-03-01T15:47:27;8.30;99.90
48946;DHT22;34999;50.940;3.998;2023-03-01T15:49:59;8.20;99.90
48946;DHT22;34999;50.940;3.998;2023-03-01T15:52:31;8.10;99.90
48946;DHT22;34999;50.940;3.998;2023-03-01T15:55:06;8.10;99.90
48946;DHT22;34999;50.940;3.998;2023-03-01T15:57:40;8.10;99.90
48946;DHT22;34999;50.940;3.998;2023-03-01T16:00:10;8.10;99.90
48946;DHT22;34999;50.940;3.998;2023-03-01T16:02:41;8.00;99.90
48946;DHT22;34999;50.940;3.998;2023-03-01T16:05:17;8.10;99.90
48946;DHT22;34999;50.940;3.998;2023-03-01T16:07:46;8.10;99.90
48946;DHT22;34999;50.940;3.998;2023-03-01T16:10:15;8.10;99.90
48946;DHT22;34999;50.940;3.998;2023-03-01T16:12:43;8.00;99.90
48946;DHT22;34999;50.940;3.998;2023-03-01T16:15:16;7.90;99.90